ADDS METAR Data INFO
IDs: Format: Raw Decoded Include TAF

Data at: 2356 UTC 24 Feb 2018

KSSF 242353Z 00000KT 10SM CLR 23/20 A2984 RMK AO2 SLP096 60000 T02330200 10244 20222 53003 $
KSSF 242253Z 00000KT 10SM CLR 23/20 A2982 RMK AO2 SLP090 T02330200 $
KSSF 242203Z 00000KT 10SM FEW019 SCT032 24/19 A2983 RMK AO2 T02390194 $
KSSF 242153Z 22005KT 10SM SCT018 BKN029 BKN036 24/20 A2983 RMK AO2 SLP092 T02440200 $
KSSF 242129Z 00000KT 10SM BKN025 BKN036 24/20 A2983 RMK AO2 T02390200 $
KSSF 242053Z 00000KT 10SM SCT029 OVC036 24/20 A2983 RMK AO2 SLP092 60000 T02390200 56022 $
KSSF 242017Z 21005KT 10SM SCT013 SCT022 OVC031 23/20 A2984 RMK AO2 T02330200 $
KSSF 241953Z 17007KT 10SM BKN014 BKN028 BKN036 23/20 A2983 RMK AO2 RAE10 SLP093 P0000 T02330200 $
KSSF 241947Z 20003KT 10SM FEW010 BKN014 BKN028 23/20 A2984 RMK AO2 RAE10 P0000 $
KSSF 241914Z 17003KT 6SM BR FEW023 OVC030 23/21 A2986 RMK AO2 RAE10 P0000 T02280206 $
KSSF 241853Z 19003KT 5SM -RA OVC023 23/20 A2988 RMK AO2 RAB52 SLP108 P0000 T02280200 $
KSSF 241753Z 19004KT 8SM SCT016 BKN024 OVC029 23/20 A2989 RMK AO2 SLP115 T02280200 10228 20211 50002 $
KSSF 241653Z 18006KT 9SM FEW012 OVC029 22/20 A2990 RMK AO2 SLP116 T02220200 $
KSSF 241633Z 18007KT 8SM SCT014 OVC027 22/20 A2989 RMK AO2 T02220200 $
KSSF 241606Z 17006KT 7SM BKN013 OVC020 22/20 A2989 RMK AO2 T02170200
KSSF 241553Z 18006KT 10SM OVC015 22/20 A2989 RMK AO2 SLP115 T02220200
KSSF 241515Z 17007KT 10SM BKN015 BKN021 OVC034 22/20 A2990 RMK AO2 T02220200
KSSF 241453Z 16008KT 9SM BKN012 BKN018 OVC037 22/20 A2989 RMK AO2 SLP114 T02170200 53012
KSSF 241353Z 13008KT 6SM BR FEW009 BKN012 OVC036 22/20 A2987 RMK AO2 SLP108 T02170200
KSSF 241343Z 14009KT 6SM BR SCT009 BKN025 OVC038 21/20 A2987 RMK AO2 T02110200
KSSF 241312Z 14010KT 7SM SCT008 OVC040 21/20 A2987 RMK AO2 T02110200
KSSF 241253Z 14010KT 7SM BKN009 21/20 A2986 RMK AO2 SLP104 T02110200
KSSF 241222Z AUTO 15010KT 7SM BKN009 OVC060 22/20 A2986 RMK AO2 CIG 008V014 T02170200
KSSF 241153Z AUTO 15010KT 7SM OVC011 22/20 A2985 RMK AO2 SLP101 60007 70008 T02170200 10217 20211 55017
KSSF 241140Z AUTO 15010KT 7SM OVC011 21/20 A2985 RMK AO2 LTG DSNT N T02110200
KSSF 241119Z AUTO 15009KT 7SM BKN009 BKN035 21/20 A2985 RMK AO2 CIG 007V012 T02110200
KSSF 241053Z AUTO 15011G19KT 7SM FEW008 21/20 A2985 RMK AO2 RAE21 SLP101 P0000 T02110200
KSSF 241004Z AUTO 13013KT 8SM -RA FEW008 BKN110 21/20 A2984 RMK AO2 P0000 T02110200
KSSF 240953Z AUTO 14013G21KT 6SM -RA BR FEW037 SCT075 BKN110 21/20 A2985 RMK AO2 RAB10E19B24 SLP100 P0007 T02110200
KSSF 240940Z AUTO 12018KT 6SM -RA BR FEW040 FEW075 OVC100 21/20 A2984 RMK AO2 RAB10E19B24 PRESFR P0006 T02110200
KSSF 240923Z AUTO 16012KT 10SM VCTS SCT095 BKN110 22/20 A2990 RMK AO2 RAB10E19 P0000 T02170200
KSSF 240853Z AUTO 15011KT 10SM CLR 21/19 A2990 RMK AO2 LTG DSNT SW SLP119 T02110194 58015
KSSF 240825Z AUTO 14011KT 10SM FEW011 FEW028 21/19 A2989 RMK AO2 T02110194
KSSF 240753Z AUTO 14007KT 10SM FEW012 SCT018 OVC024 21/19 A2992 RMK AO2 SLP126 T02110194
KSSF 240745Z AUTO 16006KT 10SM SCT012 BKN020 OVC030 21/19 A2993 RMK AO2 T02110194
KSSF 240653Z AUTO 15007KT 10SM BKN012 OVC021 21/19 A2995 RMK AO2 SLP136 T02110194
KSSF 240553Z AUTO 13007KT 10SM OVC010 21/19 A2995 RMK AO2 SLP135 T02110194 10222 20200 402280089 57010
KSSF 240453Z AUTO 13003KT 10SM OVC011 21/19 A2996 RMK AO2 SLP141 T02110189
KSSF 240405Z AUTO 13008KT 10SM OVC013 21/19 A2997 RMK AO2 T02110189
KSSF 240353Z 10005KT 10SM OVC015 21/19 A2997 RMK AO2 SLP143 T02110189
KSSF 240339Z 11004KT 10SM BKN018 OVC048 21/19 A2997 RMK AO2 T02110189
KSSF 240253Z 15004KT 10SM SCT035 OVC047 22/18 A2998 RMK AO2 SLP148 T02170183 53005
KSSF 240153Z 11004KT 10SM SCT030 SCT037 OVC049 21/19 A2996 RMK AO2 SLP142 T02110189
KSSF 240053Z 00000KT 10SM FEW031 BKN040 OVC055 21/19 A2997 RMK AO2 SLP143 T02110189
KSSF 232353Z 00000KT 10SM OVC049 22/19 A2996 RMK AO2 SLP141 60000 T02220194 10228 20200 56014
KSSF 232253Z 14003KT 10SM OVC041 23/19 A2998 RMK AO2 SLP146 T02280194
KSSF 232207Z 14005KT 10SM FEW017 SCT028 OVC040 23/19 A2998 RMK AO2 T02280194
KSSF 232153Z 13007KT 10SM SCT017 BKN026 OVC035 23/19 A2998 RMK AO2 RAB2057E11 SLP150 P0000 T02280194
KSSF 232142Z 14010KT 10SM SCT019 BKN030 OVC038 22/19 A2998 RMK AO2 RAB2057E11 P0000 T02220189
KSSF 232053Z 14012KT 10SM OVC018 22/19 A3001 RMK AO2 SLP157 60000 T02220189 56035
KSSF 232028Z 16010KT 10SM SCT015 BKN020 OVC050 23/19 A3001 RMK AO2 T02280194
KSSF 231953Z 15007KT 10SM OVC011 21/19 A3004 RMK AO2 RAE17B43E52 SLP170 P0000 T02110194
KSSF 231853Z 13008KT 6SM -RA BR OVC006 20/18 A3008 RMK AO2 RAB53 SLP182 P0000 T02000183
KSSF 231836Z 13008KT 6SM BR OVC005 19/18 A3009 RMK AO2 T01890183
KSSF 231803Z 14007KT 6SM BR OVC004 18/17 A3011 RMK AO2 T01830172
KSSF 231753Z 13008KT 6SM BR OVC003 18/17 A3011 RMK AO2 SLP194 60001 T01830172 10183 20117 58008
KSSF 231719Z 13008KT 4SM BR OVC002 18/17 A3012 RMK AO2 T01780167
KSSF 231711Z 12006KT 2 1/2SM BR OVC002 17/16 A3011 RMK AO2 T01670161
KSSF 231653Z 12005KT 1SM BR VV003 16/15 A3012 RMK AO2 SLP199 T01560150
KSSF 231553Z 11004KT 3/4SM BR VV002 13/13 A3014 RMK AO2 SLP206 T01330128
KSSF 231453Z 08004KT 1/2SM FG VV002 12/11 A3014 RMK AO2 RAB26E51 SLP206 P0001 60001 T01170111 51020
KSSF 231353Z 09008KT 1/2SM FG OVC003 12/12 A3012 RMK AO2 SLP202 T01220117
KSSF 231340Z 09009KT 3/4SM BR OVC003 13/12 A3012 RMK AO2 T01280117 $
KSSF 231333Z 09009KT 1 3/4SM BR OVC004 13/12 A3011 RMK AO2 T01280122 $
KSSF 231314Z 09006KT 10SM OVC004 13/12 A3012 RMK AO2 T01330122 $
KSSF 231253Z 07007KT 040V130 10SM OVC006 13/12 A3011 RMK AO2 RAE1156B13E34 CIG 005V010 SLP197 P0000 T01280117 $
KSSF 231230Z AUTO 10005KT 10SM -RA BKN010 OVC016 13/12 A3011 RMK AO2 RAE1156B13 CIG 007V013 P0000 T01330122 $